Time;durP1;ratioP1;P1;durP2;ratioP2;P2;SDS_P1;SDS_P2;PMS_P1;PMS_P2;Temp;Humidity;BMP_temperature;BMP_pressure;BME280_temperature;BME280_humidity;BME280_pressure;Samples;Min_cycle;Max_cycle;Signal;HPM_P1;HPM_P2
2021/11/01 00:00:43;;;;;;;11.75;1.70;;;10.00;99.90;;;;;;5040833;28;20107;-61
2021/11/01 00:03:09;;;;;;;11.18;1.30;;;9.90;99.90;;;;;;5039138;28;20086;-60
2021/11/01 00:05:34;;;;;;;21.40;1.52;;;9.90;99.90;;;;;;5037339;28;20030;-63
2021/11/01 00:08:00;;;;;;;10.50;1.80;;;9.90;99.90;;;;;;5024038;28;20033;-61
2021/11/01 00:10:26;;;;;;;13.23;1.42;;;9.90;99.90;;;;;;5038486;28;20034;-62
2021/11/01 00:12:53;;;;;;;9.70;1.35;;;9.80;99.90;;;;;;5040614;28;20142;-62
2021/11/01 00:15:18;;;;;;;11.32;1.70;;;9.90;99.90;;;;;;5037487;28;20057;-61
2021/11/01 00:17:44;;;;;;;9.10;1.13;;;9.80;99.90;;;;;;5041329;28;20036;-62
2021/11/01 00:20:11;;;;;;;14.23;2.08;;;9.80;99.90;;;;;;5040650;28;20037;-64
2021/11/01 00:22:37;;;;;;;7.63;1.63;;;9.80;99.90;;;;;;5038306;28;20508;-61
2021/11/01 00:25:05;;;;;;;11.52;1.52;;;9.80;99.90;;;;;;5041789;28;20040;-61
2021/11/01 00:27:30;;;;;;;16.27;1.50;;;9.80;99.90;;;;;;5037966;28;20040;-60
2021/11/01 00:29:56;;;;;;;18.90;2.40;;;9.70;99.90;;;;;;5040929;28;20033;-62
2021/11/01 00:32:21;;;;;;;14.57;1.50;;;9.80;99.90;;;;;;5038443;28;20037;-60
2021/11/01 00:34:47;;;;;;;13.05;1.90;;;9.70;99.90;;;;;;5039550;28;20034;-61
2021/11/01 00:37:13;;;;;;;11.95;1.25;;;9.80;99.90;;;;;;5039294;28;20044;-61
2021/11/01 00:39:39;;;;;;;15.15;1.20;;;9.70;99.90;;;;;;5038906;28;20037;-61
2021/11/01 00:42:05;;;;;;;13.95;1.98;;;9.70;99.90;;;;;;5045434;28;20487;-62
2021/11/01 00:44:31;;;;;;;14.93;2.22;;;9.70;99.90;;;;;;5037622;28;20484;-60
2021/11/01 00:46:58;;;;;;;8.73;1.30;;;9.70;99.90;;;;;;5040387;28;20168;-60
2021/11/01 00:49:27;;;;;;;12.13;2.28;;;9.70;99.90;;;;;;5042240;28;20055;-62
2021/11/01 00:51:55;;;;;;;16.77;1.60;;;9.80;99.90;;;;;;5041052;28;20037;-61
2021/11/01 00:54:21;;;;;;;15.57;1.75;;;9.70;99.90;;;;;;5037578;28;20037;-61
2021/11/01 00:56:47;;;;;;;10.52;1.67;;;9.70;99.90;;;;;;5039859;28;20044;-61
2021/11/01 00:59:13;;;;;;;12.07;1.60;;;9.70;99.90;;;;;;5038876;28;20064;-60
2021/11/01 01:01:39;;;;;;;12.10;1.40;;;9.70;99.90;;;;;;5038327;28;20697;-61
2021/11/01 01:04:05;;;;;;;11.80;1.10;;;9.70;99.90;;;;;;5040287;28;20040;-61
2021/11/01 01:06:31;;;;;;;6.47;0.73;;;9.70;99.90;;;;;;5037322;28;20038;-60
2021/11/01 01:08:57;;;;;;;9.68;2.00;;;9.70;99.90;;;;;;5040119;28;20098;-63
2021/11/01 01:11:23;;;;;;;13.88;1.25;;;9.60;99.90;;;;;;5037764;28;20515;-63
2021/11/01 01:13:52;;;;;;;13.25;2.72;;;9.60;99.90;;;;;;5039958;28;20571;-61
2021/11/01 01:18:45;;;;;;;14.32;2.75;;;9.60;99.90;;;;;;5037381;28;20029;-62
2021/11/01 01:23:55;;;;;;;7.63;1.15;;;9.50;99.90;;;;;;5039065;28;20044;-61
2021/11/01 01:26:22;;;;;;;11.18;1.25;;;9.50;99.90;;;;;;5036855;28;20200;-60
2021/11/01 01:28:48;;;;;;;5.22;1.40;;;9.50;99.90;;;;;;5038936;28;20045;-62
2021/11/01 01:31:14;;;;;;;11.68;1.20;;;9.50;99.90;;;;;;5020170;28;20557;-60
2021/11/01 01:33:40;;;;;;;7.18;0.85;;;9.50;99.90;;;;;;5038275;28;20382;-62
2021/11/01 01:36:06;;;;;;;9.88;0.85;;;9.50;99.90;;;;;;5039413;28;20040;-62
2021/11/01 01:38:33;;;;;;;8.48;1.67;;;9.50;99.90;;;;;;5036833;28;20049;-62
2021/11/01 01:41:09;;;;;;;12.05;1.77;;;9.50;99.90;;;;;;5039927;28;20033;-60
2021/11/01 01:43:35;;;;;;;7.47;0.85;;;9.40;99.90;;;;;;5039038;28;20051;-60
2021/11/01 01:46:00;;;;;;;5.85;1.52;;;9.40;99.90;;;;;;5036744;28;20068;-61
2021/11/01 01:48:26;;;;;;;7.93;0.80;;;9.50;99.90;;;;;;5020340;28;20040;-62
2021/11/01 01:50:52;;;;;;;11.07;0.93;;;9.40;99.90;;;;;;5039879;28;20028;-61
2021/11/01 01:53:21;;;;;;;10.10;1.05;;;9.40;99.90;;;;;;5043976;28;20116;-60
2021/11/01 01:55:46;;;;;;;7.30;1.05;;;9.40;99.90;;;;;;5036062;28;20033;-62
2021/11/01 01:58:12;;;;;;;6.85;1.85;;;9.40;99.90;;;;;;5037999;28;20580;-62
2021/11/01 02:03:12;;;;;;;5.35;1.10;;;9.40;99.90;;;;;;5041369;28;20107;-63
2021/11/01 02:06:07;;;;;;;13.98;1.83;;;9.40;99.90;;;;;;5037142;28;20079;-62
2021/11/01 02:08:44;;;;;;;12.80;1.05;;;9.30;99.90;;;;;;5039416;28;20083;-60
2021/11/01 02:11:15;;;;;;;14.23;1.88;;;9.30;99.90;;;;;;5039634;28;20120;-61
2021/11/01 02:13:45;;;;;;;5.90;0.82;;;9.40;99.90;;;;;;5037035;28;20071;-61
2021/11/01 02:16:13;;;;;;;9.75;1.10;;;9.30;99.90;;;;;;5038558;28;20144;-62
2021/11/01 02:18:43;;;;;;;12.57;1.48;;;9.40;99.90;;;;;;5037461;28;20064;-65
2021/11/01 02:21:17;;;;;;;3.45;0.80;;;9.30;99.90;;;;;;5038096;28;20034;-62
2021/11/01 02:24:26;;;;;;;13.45;1.13;;;9.30;99.90;;;;;;5021679;28;20056;-62
2021/11/01 02:26:53;;;;;;;7.05;0.80;;;9.30;99.90;;;;;;5000166;28;20037;-60
2021/11/01 02:29:19;;;;;;;8.15;0.63;;;9.30;99.90;;;;;;5042715;28;20037;-62
2021/11/01 02:31:46;;;;;;;7.47;1.27;;;9.30;99.90;;;;;;5037868;28;20559;-63
2021/11/01 02:34:13;;;;;;;8.52;1.58;;;9.30;99.90;;;;;;5039190;28;20120;-62
2021/11/01 02:36:38;;;;;;;7.68;1.23;;;9.20;99.90;;;;;;5035818;28;20038;-62
2021/11/01 02:39:05;;;;;;;5.20;0.90;;;9.20;99.90;;;;;;5038751;28;20195;-62
2021/11/01 02:41:33;;;;;;;6.38;1.10;;;9.20;99.90;;;;;;5037196;28;20040;-61
2021/11/01 02:44:02;;;;;;;11.70;1.83;;;9.20;99.90;;;;;;5040393;28;20079;-63
2021/11/01 02:46:28;;;;;;;8.38;0.82;;;9.10;99.90;;;;;;5035769;28;20477;-61
2021/11/01 02:48:54;;;;;;;7.82;0.98;;;9.10;99.90;;;;;;5022799;28;20062;-61
2021/11/01 02:51:22;;;;;;;6.57;1.38;;;9.10;99.90;;;;;;5040383;28;20485;-61
2021/11/01 02:53:50;;;;;;;8.82;0.95;;;9.10;99.90;;;;;;5019096;28;20037;-61
2021/11/01 02:56:16;;;;;;;6.30;1.10;;;9.10;99.90;;;;;;5039505;28;20486;-62
2021/11/01 02:58:43;;;;;;;8.50;1.00;;;9.20;99.90;;;;;;5037647;28;20045;-61
2021/11/01 03:01:15;;;;;;;5.90;0.82;;;9.20;99.90;;;;;;5037051;28;20394;-62
2021/11/01 03:03:42;;;;;;;7.82;1.70;;;9.30;99.90;;;;;;5025067;28;20036;-63
2021/11/01 03:06:08;;;;;;;8.07;1.83;;;9.30;99.90;;;;;;5038213;28;20392;-64
2021/11/01 03:08:35;;;;;;;2.88;0.93;;;9.20;99.90;;;;;;5035926;28;20116;-62
2021/11/01 03:11:01;;;;;;;12.18;1.10;;;9.20;99.90;;;;;;5037476;28;20044;-61
2021/11/01 03:13:30;;;;;;;5.20;0.98;;;9.10;99.90;;;;;;5035929;28;20037;-61
2021/11/01 03:15:57;;;;;;;6.80;1.55;;;9.10;99.90;;;;;;5039935;28;20065;-62
2021/11/01 03:18:28;;;;;;;8.93;1.65;;;9.10;99.90;;;;;;5040281;28;20107;-61
2021/11/01 03:20:54;;;;;;;6.90;1.45;;;9.00;99.90;;;;;;5039564;28;20057;-61
2021/11/01 03:23:27;;;;;;;8.70;0.90;;;9.00;99.90;;;;;;5043449;28;20721;-63
2021/11/01 03:26:03;;;;;;;5.18;0.95;;;9.00;99.90;;;;;;5055723;28;20480;-65
2021/11/01 03:28:31;;;;;;;6.95;0.82;;;9.00;99.90;;;;;;5041692;28;20036;-61
2021/11/01 03:30:58;;;;;;;9.25;1.08;;;9.00;99.90;;;;;;5040212;28;20052;-63
2021/11/01 03:33:29;;;;;;;6.13;1.52;;;9.10;99.90;;;;;;5038530;28;20076;-63
2021/11/01 03:35:56;;;;;;;8.82;1.10;;;9.20;99.90;;;;;;5041185;28;20037;-61
2021/11/01 03:38:22;;;;;;;3.47;1.02;;;9.20;99.90;;;;;;5037798;28;20061;-62
2021/11/01 03:40:48;;;;;;;5.40;1.30;;;9.10;99.90;;;;;;5038935;28;20029;-61
2021/11/01 03:43:23;;;;;;;11.05;1.00;;;9.10;99.90;;;;;;5042122;28;20431;-62
2021/11/01 03:45:50;;;;;;;15.50;2.67;;;9.10;99.90;;;;;;5042751;28;20091;-61
2021/11/01 03:48:18;;;;;;;13.23;1.83;;;9.10;99.90;;;;;;5041359;28;20088;-60
2021/11/01 03:50:56;;;;;;;5.38;0.95;;;9.10;99.90;;;;;;5041723;28;20079;-62
2021/11/01 03:53:22;;;;;;;10.68;1.23;;;9.10;99.90;;;;;;5024052;28;20033;-61
2021/11/01 03:55:48;;;;;;;9.48;1.25;;;9.10;99.90;;;;;;5042215;28;20040;-61
2021/11/01 03:58:13;;;;;;;10.90;2.38;;;9.10;99.90;;;;;;5042232;28;20768;-62
2021/11/01 04:00:40;;;;;;;13.48;2.22;;;9.10;99.90;;;;;;5045401;28;20033;-62
2021/11/01 04:03:07;;;;;;;6.60;0.93;;;9.10;99.90;;;;;;5038102;28;20056;-62
2021/11/01 04:05:33;;;;;;;20.88;1.40;;;9.10;99.90;;;;;;5040201;28;20025;-63
2021/11/01 04:07:58;;;;;;;6.75;0.98;;;9.20;99.90;;;;;;5038973;28;20036;-60
2021/11/01 04:10:24;;;;;;;7.13;0.95;;;9.10;99.90;;;;;;5041144;28;20037;-61
2021/11/01 04:12:50;;;;;;;7.30;1.52;;;9.10;99.90;;;;;;5038367;28;20080;-62
2021/11/01 04:15:25;;;;;;;9.63;1.45;;;9.00;99.90;;;;;;5023744;28;20033;-62
2021/11/01 04:18:02;;;;;;;14.40;2.15;;;9.00;99.90;;;;;;5038366;28;20113;-62
2021/11/01 04:20:52;;;;;;;5.63;0.90;;;9.00;99.90;;;;;;5040400;28;20029;-62
2021/11/01 04:23:13;;;;;;;11.27;1.48;;;9.00;99.90;;;;;;5040829;28;20033;-61
2021/11/01 04:25:39;;;;;;;4.22;1.15;;;9.00;99.90;;;;;;5038369;28;20049;-62
2021/11/01 04:28:05;;;;;;;4.18;0.60;;;8.90;99.90;;;;;;5039466;28;20437;-60
2021/11/01 04:30:38;;;;;;;12.07;0.95;;;9.00;99.90;;;;;;5037592;28;20033;-61
2021/11/01 04:33:06;;;;;;;4.68;0.63;;;9.00;99.90;;;;;;5039486;28;20078;-62
2021/11/01 04:35:36;;;;;;;8.93;1.90;;;8.90;99.90;;;;;;5038097;28;20037;-62
2021/11/01 04:38:09;;;;;;;12.35;1.05;;;8.90;99.90;;;;;;5038003;28;20037;-61
2021/11/01 04:54:04;;;;;;;12.35;1.17;;;8.90;99.90;;;;;;5039771;28;20165;-61
2021/11/01 04:56:30;;;;;;;7.60;1.05;;;8.90;99.90;;;;;;5039356;28;20029;-60
2021/11/01 04:58:56;;;;;;;11.50;1.40;;;8.90;99.90;;;;;;5039308;28;20113;-61
2021/11/01 05:01:34;;;;;;;6.95;1.70;;;8.90;99.90;;;;;;5022103;28;20045;-61
2021/11/01 05:04:05;;;;;;;7.07;1.00;;;8.80;99.90;;;;;;5039105;28;20036;-61
2021/11/01 05:06:31;;;;;;;7.60;1.58;;;8.80;99.90;;;;;;5038749;28;20037;-61
2021/11/01 05:09:01;;;;;;;13.20;1.30;;;8.80;99.90;;;;;;5038054;28;20374;-60
2021/11/01 05:11:31;;;;;;;9.57;1.38;;;8.80;99.90;;;;;;5039011;28;20048;-61
2021/11/01 05:13:58;;;;;;;6.60;1.25;;;8.80;99.90;;;;;;5038561;28;20393;-61
2021/11/01 05:23:58;;;;;;;24.00;3.10;;;8.80;99.90;;;;;;5037610;28;20489;-61
2021/11/01 05:29:09;;;;;;;7.72;2.03;;;8.90;99.90;;;;;;5039866;28;20040;-63
2021/11/01 05:34:33;;;;;;;14.40;2.45;;;8.80;99.90;;;;;;4989298;28;20132;-61
2021/11/01 05:36:59;;;;;;;16.25;1.60;;;8.80;99.90;;;;;;5037384;28;20151;-61
2021/11/01 05:39:25;;;;;;;9.80;1.17;;;8.80;99.90;;;;;;5039842;28;20033;-61
2021/11/01 05:41:51;;;;;;;4.13;1.17;;;8.80;99.90;;;;;;5039083;28;20613;-62
2021/11/01 05:44:16;;;;;;;9.70;1.60;;;8.80;99.90;;;;;;5035647;28;20033;-62
2021/11/01 05:46:48;;;;;;;8.00;2.45;;;8.80;99.90;;;;;;5036506;28;20034;-62
2021/11/01 05:49:14;;;;;;;4.68;1.00;;;8.80;99.90;;;;;;5039867;28;20079;-61
2021/11/01 05:51:40;;;;;;;9.48;1.33;;;8.80;99.90;;;;;;5037823;28;20033;-62
2021/11/01 05:54:18;;;;;;;7.05;1.00;;;8.80;99.90;;;;;;5038223;28;20033;-62
2021/11/01 05:59:39;;;;;;;7.93;1.30;;;8.80;99.90;;;;;;5038461;28;20100;-61
2021/11/01 06:15:06;;;;;;;5.93;1.08;;;9.00;99.90;;;;;;4991462;28;20033;-60
2021/11/01 06:17:32;;;;;;;8.30;0.98;;;8.90;99.90;;;;;;5034166;28;20837;-62
2021/11/01 06:19:58;;;;;;;6.72;1.00;;;9.00;99.90;;;;;;5036869;28;20029;-61
2021/11/01 06:22:25;;;;;;;7.18;1.50;;;8.90;99.90;;;;;;5020562;28;20082;-61
2021/11/01 06:24:57;;;;;;;6.75;1.23;;;8.90;99.90;;;;;;5039041;28;20504;-63
2021/11/01 06:27:23;;;;;;;9.63;1.48;;;8.80;99.90;;;;;;5034606;28;20463;-60
2021/11/01 06:33:25;;;;;;;10.50;1.42;;;8.80;99.90;;;;;;5037694;28;20098;-62
2021/11/01 06:54:24;;;;;;;12.13;1.75;;;8.80;99.90;;;;;;5036679;28;20506;-62
2021/11/01 07:16:22;;;;;;;4.43;0.80;;;9.30;99.90;;;;;;5037615;28;20508;-63
2021/11/01 08:24:30;;;;;;;9.85;1.45;;;10.10;99.90;;;;;;5031850;28;20099;-61
2021/11/01 08:35:44;;;;;;;7.38;1.38;;;10.30;99.90;;;;;;5030704;28;20045;-62
2021/11/01 08:40:30;;;;;;;3.67;0.88;;;10.40;99.90;;;;;;5040433;28;20033;-62
2021/11/01 08:48:14;;;;;;;6.50;1.25;;;10.50;99.90;;;;;;5040078;28;20168;-61
2021/11/01 09:06:58;;;;;;;9.00;1.45;;;10.80;99.90;;;;;;5038425;28;20025;-61
2021/11/01 09:20:09;;;;;;;5.97;1.02;;;11.10;99.90;;;;;;5038094;28;20043;-61
2021/11/01 09:25:42;;;;;;;8.07;0.93;;;11.00;99.90;;;;;;5032139;28;20078;-63
2021/11/01 09:28:18;;;;;;;7.43;0.57;;;11.10;99.90;;;;;;5025265;28;20056;-62
2021/11/01 09:36:17;;;;;;;9.00;0.88;;;11.30;99.90;;;;;;5036375;28;20166;-61
2021/11/01 09:41:20;;;;;;;7.00;1.42;;;11.30;99.90;;;;;;5039550;28;20111;-62
2021/11/01 09:43:49;;;;;;;3.42;0.95;;;11.30;99.90;;;;;;5035833;28;20041;-62
2021/11/01 09:46:15;;;;;;;3.05;0.70;;;11.40;99.90;;;;;;5037229;28;20370;-63
2021/11/01 09:48:41;;;;;;;5.43;0.60;;;11.40;99.90;;;;;;5038649;28;20094;-62
2021/11/01 09:51:08;;;;;;;3.25;0.50;;;11.50;99.90;;;;;;5031492;28;20662;-61
2021/11/01 09:53:48;;;;;;;3.33;0.70;;;11.50;99.90;;;;;;5038174;28;20041;-62
2021/11/01 09:56:29;;;;;;;3.42;0.30;;;11.50;99.90;;;;;;5024370;28;20037;-62
2021/11/01 09:59:11;;;;;;;3.13;1.05;;;11.60;99.90;;;;;;5038442;28;20045;-62
2021/11/01 10:01:38;;;;;;;2.60;0.35;;;11.60;99.90;;;;;;5020707;28;20033;-61
2021/11/01 10:04:16;;;;;;;4.32;0.93;;;11.60;99.90;;;;;;5032142;28;20038;-61
2021/11/01 10:06:42;;;;;;;4.95;0.50;;;11.60;99.90;;;;;;5046854;28;20048;-63
2021/11/01 10:09:12;;;;;;;3.70;1.02;;;11.70;99.90;;;;;;5042042;28;20030;-62
2021/11/01 10:11:43;;;;;;;4.67;0.90;;;11.80;99.90;;;;;;5037787;28;20035;-64
2021/11/01 10:14:11;;;;;;;5.32;1.33;;;11.80;99.90;;;;;;5034292;28;20271;-62
2021/11/01 10:19:41;;;;;;;2.67;0.73;;;11.80;99.90;;;;;;5038553;28;20036;-63
2021/11/01 10:22:27;;;;;;;3.75;0.40;;;11.80;99.90;;;;;;5048708;28;20037;-63
2021/11/01 10:24:55;;;;;;;3.75;0.60;;;11.80;99.90;;;;;;5025820;28;20128;-62
2021/11/01 10:27:40;;;;;;;3.35;0.40;;;11.90;99.90;;;;;;5035743;28;20033;-62
2021/11/01 10:30:21;;;;;;;6.30;0.40;;;11.90;99.90;;;;;;5037875;28;20037;-62
2021/11/01 10:32:48;;;;;;;;;;;11.90;99.90;;;;;;5039612;28;20108;-60
2021/11/01 10:35:27;;;;;;;13.43;1.48;;;11.90;99.90;;;;;;5036349;28;19928;-62
2021/11/01 10:38:39;;;;;;;6.68;0.73;;;11.90;99.90;;;;;;5033940;28;20047;-62
2021/11/01 10:57:58;;;;;;;4.03;0.50;;;12.10;99.90;;;;;;5035995;28;20129;-64
2021/11/01 11:13:34;;;;;;;3.30;0.40;;;12.30;99.90;;;;;;5033762;28;20389;-61
2021/11/01 11:16:02;;;;;;;6.60;0.50;;;12.40;99.90;;;;;;5036675;28;20079;-61
2021/11/01 11:18:57;;;;;;;2.60;0.60;;;12.40;99.90;;;;;;5017340;28;20029;-61
2021/11/01 11:24:35;;;;;;;4.05;0.70;;;12.50;99.90;;;;;;5031273;28;20040;-61
2021/11/01 11:49:43;;;;;;;5.10;1.02;;;12.50;99.90;;;;;;5026760;28;20037;-60
2021/11/01 11:52:14;;;;;;;1.85;0.63;;;12.50;99.90;;;;;;5027938;28;20037;-61
2021/11/01 11:54:52;;;;;;;2.58;0.73;;;12.60;99.90;;;;;;5013365;28;20028;-60
2021/11/01 11:57:33;;;;;;;4.05;0.77;;;12.60;99.90;;;;;;5017832;28;20064;-61
2021/11/01 12:00:00;;;;;;;1.92;0.50;;;12.60;99.90;;;;;;5017441;28;20068;-62
2021/11/01 12:02:39;;;;;;;4.57;0.40;;;12.60;99.90;;;;;;5028738;28;20033;-60
2021/11/01 12:05:13;;;;;;;7.53;0.90;;;12.60;99.90;;;;;;5029979;28;20557;-62
2021/11/01 12:07:49;;;;;;;4.32;0.60;;;12.60;99.90;;;;;;5017818;28;20052;-62
2021/11/01 12:10:45;;;;;;;10.38;0.75;;;12.60;99.90;;;;;;5033233;28;20124;-60
2021/11/01 12:13:13;;;;;;;2.58;0.60;;;12.60;99.90;;;;;;5036862;28;20476;-61
2021/11/01 12:18:34;;;;;;;4.57;0.50;;;12.60;99.90;;;;;;5035124;28;20047;-61
2021/11/01 12:21:00;;;;;;;4.60;0.60;;;12.60;99.90;;;;;;5038987;28;20487;-61
2021/11/01 12:23:40;;;;;;;3.90;0.60;;;12.70;99.90;;;;;;5037299;28;20468;-61
2021/11/01 12:26:15;;;;;;;3.37;0.47;;;12.70;99.90;;;;;;5023569;28;20061;-61
2021/11/01 12:28:56;;;;;;;3.65;1.02;;;12.80;99.90;;;;;;5038640;28;20291;-60
2021/11/01 12:31:21;;;;;;;;;;;12.80;99.90;;;;;;5024726;28;20033;-61
2021/11/01 12:36:30;;;;;;;3.17;1.15;;;12.80;99.90;;;;;;5038211;28;20029;-63
2021/11/01 12:39:10;;;;;;;4.75;0.80;;;12.80;99.90;;;;;;5022013;28;20041;-61
2021/11/01 12:41:56;;;;;;;3.15;0.80;;;12.80;99.90;;;;;;5039244;28;20072;-60
2021/11/01 12:47:46;;;;;;;3.75;0.40;;;12.70;99.90;;;;;;5040243;28;20110;-60
2021/11/01 12:58:27;;;;;;;4.88;0.63;;;12.70;99.90;;;;;;5036059;28;20071;-61
2021/11/01 13:00:53;;;;;;;2.63;0.68;;;12.70;99.90;;;;;;5023358;28;20080;-60
2021/11/01 13:03:22;;;;;;;3.53;0.40;;;12.60;99.90;;;;;;5036352;28;20041;-60
2021/11/01 13:05:54;;;;;;;3.92;0.50;;;12.70;99.90;;;;;;5031550;28;20041;-60
2021/11/01 13:08:27;;;;;;;5.68;1.08;;;12.60;99.90;;;;;;5018452;28;20477;-63
2021/11/01 13:10:56;;;;;;;3.15;1.13;;;12.60;99.90;;;;;;5033783;28;20026;-61
2021/11/01 13:13:58;;;;;;;5.15;0.73;;;12.70;99.90;;;;;;5037669;28;20025;-60
2021/11/01 13:19:16;;;;;;;3.00;0.55;;;12.80;99.90;;;;;;5033772;28;20057;-62
2021/11/01 13:22:04;;;;;;;13.77;2.30;;;12.80;99.90;;;;;;5036378;28;20063;-61
2021/11/01 13:24:52;;;;;;;6.47;0.32;;;12.90;99.90;;;;;;5036965;28;20052;-61
2021/11/01 13:37:40;;;;;;;3.40;0.65;;;12.80;99.90;;;;;;5036749;28;20459;-60
2021/11/01 13:40:08;;;;;;;6.20;0.70;;;12.80;99.90;;;;;;5030444;28;20047;-60
2021/11/01 13:42:34;;;;;;;11.15;0.82;;;12.90;99.90;;;;;;5035394;28;20039;-60
2021/11/01 13:45:11;;;;;;;3.78;0.45;;;12.80;99.90;;;;;;5036379;28;20132;-63
2021/11/01 13:47:47;;;;;;;4.85;0.70;;;12.80;99.90;;;;;;5033306;28;20049;-63
2021/11/01 13:50:19;;;;;;;9.02;1.10;;;12.80;99.90;;;;;;5029439;28;20644;-65
2021/11/01 13:53:08;;;;;;;4.20;0.80;;;12.70;99.90;;;;;;5037080;28;20032;-63
2021/11/01 13:56:04;;;;;;;1.85;0.70;;;12.70;99.90;;;;;;5031785;28;20038;-62
2021/11/01 16:18:44;;;;;;;4.50;0.40;;;9.30;99.90;;;;;;5037390;28;20045;-62
2021/11/01 16:21:11;;;;;;;4.90;1.27;;;9.30;99.90;;;;;;5032985;28;20036;-64
2021/11/01 16:23:37;;;;;;;1.95;0.32;;;9.40;99.90;;;;;;5036641;28;20037;-60
2021/11/01 16:26:15;;;;;;;2.72;0.45;;;9.40;99.90;;;;;;5021348;28;20033;-61
2021/11/01 16:28:42;;;;;;;2.03;0.30;;;9.50;99.90;;;;;;5038620;28;20621;-62
2021/11/01 16:33:39;;;;;;;1.38;0.30;;;9.40;99.90;;;;;;5032161;28;20715;-60
2021/11/01 16:36:09;;;;;;;1.92;0.40;;;9.40;99.90;;;;;;5044344;28;20461;-61
2021/11/01 16:38:50;;;;;;;0.98;0.17;;;9.40;99.90;;;;;;5032492;28;20029;-61
2021/11/01 16:41:20;;;;;;;1.75;0.30;;;9.40;99.90;;;;;;5032461;28;20049;-60
2021/11/01 16:43:48;;;;;;;1.27;0.70;;;9.40;99.90;;;;;;5040249;28;20036;-60
2021/11/01 16:46:14;;;;;;;0.65;0.15;;;9.40;99.90;;;;;;5036752;28;20479;-60
2021/11/01 16:48:43;;;;;;;1.05;0.40;;;9.50;99.90;;;;;;5021367;28;20065;-61
2021/11/01 16:51:10;;;;;;;2.03;0.13;;;9.40;99.90;;;;;;5037370;28;20032;-61
2021/11/01 16:53:39;;;;;;;1.55;0.35;;;9.40;99.90;;;;;;5037445;28;20041;-62
2021/11/01 16:56:36;;;;;;;0.98;0.10;;;9.30;99.90;;;;;;5037346;28;20033;-62
2021/11/01 17:01:53;;;;;;;0.10;0.00;;;9.20;99.90;;;;;;5010087;28;20034;-61
2021/11/01 17:04:20;;;;;;;0.25;0.10;;;9.20;99.90;;;;;;5032573;28;20025;-60
2021/11/01 17:06:59;;;;;;;0.60;0.10;;;9.10;99.90;;;;;;5034823;28;20059;-63
2021/11/01 17:26:07;;;;;;;1.17;0.17;;;9.00;99.90;;;;;;5030582;28;20041;-64
2021/11/01 17:29:21;;;;;;;0.25;0.13;;;8.90;99.90;;;;;;5028736;28;20035;-63
2021/11/01 17:37:07;;;;;;;1.95;0.20;;;8.80;99.90;;;;;;5030844;28;20083;-61
2021/11/01 18:24:58;;;;;;;0.98;0.45;;;8.50;99.90;;;;;;5032749;28;20032;-61
2021/11/01 18:41:21;;;;;;;1.55;0.50;;;8.50;99.90;;;;;;5035482;28;20064;-60
2021/11/01 18:44:01;;;;;;;0.85;0.40;;;8.50;99.90;;;;;;5026330;28;20111;-61
2021/11/01 18:50:50;;;;;;;2.47;0.40;;;8.40;99.90;;;;;;5037102;28;20154;-60
2021/11/01 18:52:20;;;;;;;2.10;0.43;;;8.40;99.90;;;;;;5036073;28;20073;-62
2021/11/01 18:54:52;;;;;;;1.35;0.57;;;8.50;99.90;;;;;;5023243;28;20125;-62
2021/11/01 18:57:20;;;;;;;3.00;1.05;;;8.40;99.90;;;;;;5036532;28;20034;-62
2021/11/01 18:59:48;;;;;;;7.03;0.70;;;8.40;99.90;;;;;;5037676;28;20029;-62
2021/11/01 19:05:06;;;;;;;3.58;1.00;;;8.40;99.90;;;;;;5042533;28;20136;-62
2021/11/01 19:07:56;;;;;;;2.08;0.80;;;8.40;99.90;;;;;;5038976;28;20559;-61
2021/11/01 20:03:09;;;;;;;3.30;1.30;;;8.10;99.90;;;;;;5041676;28;20046;-62
2021/11/01 20:05:46;;;;;;;3.25;1.02;;;8.10;99.90;;;;;;5023668;28;20025;-61
2021/11/01 21:25:53;;;;;;;3.17;1.50;;;7.60;99.90;;;;;;5043026;28;20040;-61
2021/11/01 21:28:20;;;;;;;4.47;1.63;;;7.70;99.90;;;;;;5047061;28;20033;-64
2021/11/01 21:30:46;;;;;;;6.57;1.63;;;7.60;99.90;;;;;;5043824;28;20044;-64
2021/11/01 21:33:17;;;;;;;4.45;1.10;;;7.60;99.90;;;;;;5043082;28;20041;-63
2021/11/01 21:35:47;;;;;;;5.72;1.50;;;7.60;99.90;;;;;;5046736;28;20064;-64
2021/11/01 21:38:13;;;;;;;5.82;2.20;;;7.60;99.90;;;;;;5041593;28;20049;-69
2021/11/01 21:40:42;;;;;;;4.53;1.90;;;7.60;99.90;;;;;;5030386;28;20040;-64
2021/11/01 21:43:07;;;;;;;4.13;1.42;;;7.50;99.90;;;;;;5040618;28;20033;-63
2021/11/01 21:45:33;;;;;;;5.78;1.42;;;7.50;99.90;;;;;;5045310;28;20044;-63
2021/11/01 21:47:59;;;;;;;5.15;1.38;;;7.50;99.90;;;;;;5043956;28;20055;-64
2021/11/01 21:50:24;;;;;;;2.33;1.33;;;7.50;99.90;;;;;;5043732;28;20064;-62
2021/11/01 21:52:52;;;;;;;3.30;1.77;;;7.50;99.90;;;;;;5045714;28;20086;-61
2021/11/01 21:55:20;;;;;;;2.40;1.33;;;7.50;99.90;;;;;;5046664;28;20040;-63
2021/11/01 21:57:48;;;;;;;2.53;1.30;;;7.50;99.90;;;;;;5045923;28;20037;-63
2021/11/01 22:00:41;;;;;;;3.15;1.48;;;7.50;99.90;;;;;;5042110;28;20119;-62
2021/11/01 22:21:56;;;;;;;6.15;1.30;;;7.30;99.90;;;;;;5043827;28;20036;-65
2021/11/01 22:24:32;;;;;;;4.20;1.80;;;7.30;99.90;;;;;;5046123;28;20037;-63
2021/11/01 22:57:06;;;;;;;2.80;1.60;;;7.20;99.90;;;;;;5046116;28;20090;-62
2021/11/01 22:59:32;;;;;;;5.53;1.80;;;7.10;99.90;;;;;;5046350;28;20036;-62
2021/11/01 23:01:58;;;;;;;1.95;1.27;;;7.10;99.90;;;;;;5046078;28;20048;-62
2021/11/01 23:33:53;;;;;;;3.65;1.77;;;6.90;99.90;;;;;;5038547;28;20048;-63
2021/11/01 23:36:19;;;;;;;4.65;2.42;;;6.90;99.90;;;;;;5041368;28;20032;-64
2021/11/01 23:38:44;;;;;;;4.30;2.13;;;6.90;99.90;;;;;;5038818;28;20049;-63
2021/11/01 23:41:10;;;;;;;4.00;2.25;;;6.90;99.90;;;;;;5042433;28;20480;-62
2021/11/01 23:43:36;;;;;;;4.00;2.25;;;6.90;99.90;;;;;;5039501;28;20034;-62
2021/11/01 23:46:03;;;;;;;6.60;2.33;;;6.80;99.90;;;;;;5023045;28;20045;-63
2021/11/01 23:48:28;;;;;;;3.33;1.88;;;6.80;99.90;;;;;;5040688;28;20040;-61
2021/11/01 23:50:55;;;;;;;3.55;1.80;;;6.90;99.90;;;;;;5044257;28;20099;-60
2021/11/01 23:53:40;;;;;;;5.68;2.63;;;6.80;99.90;;;;;;5035779;28;20026;-61
2021/11/01 23:56:07;;;;;;;9.48;2.08;;;6.80;99.90;;;;;;5036209;28;20029;-61
2021/11/01 23:58:34;;;;;;;4.30;2.17;;;6.80;99.90;;;;;;5037031;28;20033;-62
